Erdahl, Minnesota
Current Conditions -  °F | °C
As of 10:36 PM on Friday 24 Oct 2014 (Local Time) from KY63 Reporting Station
Scattered Clouds Scattered Clouds  
Wind Chill: 59°   Ceiling: Unl
Heat Index: 59°   Visibility: 10mi
Dew Point: 36°   Wind: 10mph
Humidity: 41%   Direction: 300°WNW
Pressure: 29.93"   Gusts: NA
Location:  45.995°N, 96.0062°W
Report Text: KY63 250336Z AUTO 30009KT 10SM SCT120 15/02 A2993 RMK AO2 T01510020
Loading
Personal Weather Stations






























Interactive Weather Map
Tropical Storm Tracking
New forecast layout! Learn more

10-Day Weather Forecast

Advertisements
Track Severe Weather on mobile